sensor_id;sensor_type;location;lat;lon;timestamp;pressure;altitude;pressure_sealevel;temperature;humidity
47742;BME280;33504;52.066;6.096;2022-11-24T00:00:17;100194.04;;;9.37;53.73
47742;BME280;33504;52.066;6.096;2022-11-24T00:02:44;100197.57;;;9.04;53.87
47742;BME280;33504;52.066;6.096;2022-11-24T00:05:11;100203.94;;;8.97;54.06
47742;BME280;33504;52.066;6.096;2022-11-24T00:07:38;100200.55;;;8.91;54.49
47742;BME280;33504;52.066;6.096;2022-11-24T00:10:05;100204.66;;;9.13;54.10
47742;BME280;33504;52.066;6.096;2022-11-24T00:12:32;100207.26;;;9.14;53.57
47742;BME280;33504;52.066;6.096;2022-11-24T00:14:59;100210.87;;;9.15;53.49
47742;BME280;33504;52.066;6.096;2022-11-24T00:17:26;100205.81;;;9.23;53.69
47742;BME280;33504;52.066;6.096;2022-11-24T00:19:53;100206.84;;;8.98;54.21
47742;BME280;33504;52.066;6.096;2022-11-24T00:22:21;100202.28;;;9.00;53.81
47742;BME280;33504;52.066;6.096;2022-11-24T00:24:48;100204.78;;;9.37;53.44
47742;BME280;33504;52.066;6.096;2022-11-24T00:27:15;100202.59;;;9.41;53.45
47742;BME280;33504;52.066;6.096;2022-11-24T00:29:42;100202.23;;;9.37;53.59
47742;BME280;33504;52.066;6.096;2022-11-24T00:32:09;100207.26;;;9.15;53.74
47742;BME280;33504;52.066;6.096;2022-11-24T00:34:36;100202.06;;;8.97;54.20
47742;BME280;33504;52.066;6.096;2022-11-24T00:37:04;100201.40;;;9.15;53.97
47742;BME280;33504;52.066;6.096;2022-11-24T00:39:32;100201.04;;;8.72;54.06
47742;BME280;33504;52.066;6.096;2022-11-24T00:41:59;100201.55;;;8.69;54.24
47742;BME280;33504;52.066;6.096;2022-11-24T00:44:26;100207.34;;;9.07;53.53
47742;BME280;33504;52.066;6.096;2022-11-24T00:46:53;100211.74;;;9.14;53.84
47742;BME280;33504;52.066;6.096;2022-11-24T00:49:20;100214.39;;;9.09;53.84
47742;BME280;33504;52.066;6.096;2022-11-24T00:51:47;100216.06;;;9.60;53.31
47742;BME280;33504;52.066;6.096;2022-11-24T00:54:15;100213.71;;;9.09;53.74
47742;BME280;33504;52.066;6.096;2022-11-24T00:56:42;100221.48;;;8.97;53.95
47742;BME280;33504;52.066;6.096;2022-11-24T00:59:09;100219.62;;;8.88;54.25
47742;BME280;33504;52.066;6.096;2022-11-24T01:01:36;100222.06;;;8.93;53.99
47742;BME280;33504;52.066;6.096;2022-11-24T01:04:03;100225.80;;;8.35;54.54
47742;BME280;33504;52.066;6.096;2022-11-24T01:06:31;100227.87;;;9.02;53.96
47742;BME280;33504;52.066;6.096;2022-11-24T01:08:58;100229.20;;;8.99;53.44
47742;BME280;33504;52.066;6.096;2022-11-24T01:11:27;100230.75;;;8.93;53.88
47742;BME280;33504;52.066;6.096;2022-11-24T01:13:57;100231.32;;;8.86;54.04
47742;BME280;33504;52.066;6.096;2022-11-24T01:16:27;100229.65;;;9.20;53.39
47742;BME280;33504;52.066;6.096;2022-11-24T01:18:55;100233.71;;;8.84;53.96
47742;BME280;33504;52.066;6.096;2022-11-24T01:21:23;100228.64;;;8.84;54.11
47742;BME280;33504;52.066;6.096;2022-11-24T01:23:50;100230.26;;;9.11;53.45
47742;BME280;33504;52.066;6.096;2022-11-24T01:26:19;100236.83;;;8.90;53.72
47742;BME280;33504;52.066;6.096;2022-11-24T01:28:51;100244.97;;;8.96;53.21
47742;BME280;33504;52.066;6.096;2022-11-24T01:31:19;100236.52;;;8.89;53.67
47742;BME280;33504;52.066;6.096;2022-11-24T01:33:46;100246.63;;;9.21;53.25
47742;BME280;33504;52.066;6.096;2022-11-24T01:36:14;100247.47;;;9.28;53.08
47742;BME280;33504;52.066;6.096;2022-11-24T01:38:41;100248.40;;;8.61;53.66
47742;BME280;33504;52.066;6.096;2022-11-24T01:41:11;100251.44;;;8.95;53.40
47742;BME280;33504;52.066;6.096;2022-11-24T01:43:39;100251.24;;;9.05;53.38
47742;BME280;33504;52.066;6.096;2022-11-24T01:46:13;100254.17;;;9.32;52.31
47742;BME280;33504;52.066;6.096;2022-11-24T01:48:45;100252.72;;;9.42;52.67
47742;BME280;33504;52.066;6.096;2022-11-24T01:51:17;100256.31;;;8.93;52.94
47742;BME280;33504;52.066;6.096;2022-11-24T01:53:50;100256.42;;;9.40;52.53
47742;BME280;33504;52.066;6.096;2022-11-24T01:56:19;100256.62;;;9.16;52.44
47742;BME280;33504;52.066;6.096;2022-11-24T01:58:48;100255.11;;;9.22;52.68
47742;BME280;33504;52.066;6.096;2022-11-24T02:01:17;100256.14;;;9.49;52.20
47742;BME280;33504;52.066;6.096;2022-11-24T02:03:45;100257.55;;;9.47;52.40
47742;BME280;33504;52.066;6.096;2022-11-24T02:06:17;100259.97;;;9.65;51.90
47742;BME280;33504;52.066;6.096;2022-11-24T02:08:50;100267.13;;;9.60;51.56
47742;BME280;33504;52.066;6.096;2022-11-24T02:11:18;100269.45;;;9.26;51.60
47742;BME280;33504;52.066;6.096;2022-11-24T02:13:47;100271.68;;;9.28;51.96
47742;BME280;33504;52.066;6.096;2022-11-24T02:16:16;100279.26;;;9.55;51.35
47742;BME280;33504;52.066;6.096;2022-11-24T02:18:43;100282.94;;;9.52;51.36
47742;BME280;33504;52.066;6.096;2022-11-24T02:21:13;100282.78;;;9.10;51.62
47742;BME280;33504;52.066;6.096;2022-11-24T02:23:46;100285.74;;;8.88;52.31
47742;BME280;33504;52.066;6.096;2022-11-24T02:26:38;100293.33;;;9.16;51.93
47742;BME280;33504;52.066;6.096;2022-11-24T02:29:06;100297.28;;;9.03;52.32
47742;BME280;33504;52.066;6.096;2022-11-24T02:31:34;100297.05;;;9.33;52.23
47742;BME280;33504;52.066;6.096;2022-11-24T02:34:01;100299.20;;;9.05;52.21
47742;BME280;33504;52.066;6.096;2022-11-24T02:36:28;100299.73;;;9.47;52.03
47742;BME280;33504;52.066;6.096;2022-11-24T02:38:56;100298.10;;;9.12;52.18
47742;BME280;33504;52.066;6.096;2022-11-24T02:41:24;100300.48;;;8.98;52.26
47742;BME280;33504;52.066;6.096;2022-11-24T02:43:54;100299.64;;;9.22;51.89
47742;BME280;33504;52.066;6.096;2022-11-24T02:46:22;100293.54;;;9.01;52.29
47742;BME280;33504;52.066;6.096;2022-11-24T02:48:50;100296.11;;;9.09;52.49
47742;BME280;33504;52.066;6.096;2022-11-24T02:51:18;100299.69;;;9.04;52.71
47742;BME280;33504;52.066;6.096;2022-11-24T02:53:45;100295.61;;;9.07;52.61
47742;BME280;33504;52.066;6.096;2022-11-24T02:56:13;100294.60;;;9.19;52.42
47742;BME280;33504;52.066;6.096;2022-11-24T02:58:41;100303.31;;;8.98;52.11
47742;BME280;33504;52.066;6.096;2022-11-24T03:01:08;100310.17;;;8.99;52.60
47742;BME280;33504;52.066;6.096;2022-11-24T03:03:35;100306.33;;;8.89;52.22
47742;BME280;33504;52.066;6.096;2022-11-24T03:06:03;100308.47;;;8.71;52.57
47742;BME280;33504;52.066;6.096;2022-11-24T03:08:30;100307.03;;;9.23;52.16
47742;BME280;33504;52.066;6.096;2022-11-24T03:10:57;100307.35;;;8.60;52.77
47742;BME280;33504;52.066;6.096;2022-11-24T03:13:25;100309.65;;;8.69;53.12
47742;BME280;33504;52.066;6.096;2022-11-24T03:15:51;100308.63;;;8.65;53.26
47742;BME280;33504;52.066;6.096;2022-11-24T03:18:18;100307.14;;;8.78;52.91
47742;BME280;33504;52.066;6.096;2022-11-24T03:20:46;100308.82;;;8.69;53.10
47742;BME280;33504;52.066;6.096;2022-11-24T03:23:13;100304.35;;;8.55;53.31
47742;BME280;33504;52.066;6.096;2022-11-24T03:25:40;100303.70;;;8.66;53.07
47742;BME280;33504;52.066;6.096;2022-11-24T03:28:07;100300.08;;;9.09;52.34
47742;BME280;33504;52.066;6.096;2022-11-24T03:30:34;100314.74;;;8.73;52.91
47742;BME280;33504;52.066;6.096;2022-11-24T03:33:00;100319.23;;;8.71;52.47
47742;BME280;33504;52.066;6.096;2022-11-24T03:35:28;100319.58;;;8.83;52.26
47742;BME280;33504;52.066;6.096;2022-11-24T03:37:55;100319.00;;;9.00;52.47
47742;BME280;33504;52.066;6.096;2022-11-24T03:40:22;100318.31;;;9.03;52.50
47742;BME280;33504;52.066;6.096;2022-11-24T03:42:49;100320.33;;;8.41;52.98
47742;BME280;33504;52.066;6.096;2022-11-24T03:45:17;100326.59;;;8.38;53.71
47742;BME280;33504;52.066;6.096;2022-11-24T03:47:44;100327.43;;;8.97;53.07
47742;BME280;33504;52.066;6.096;2022-11-24T03:50:16;100325.32;;;8.59;53.21
47742;BME280;33504;52.066;6.096;2022-11-24T03:52:43;100330.10;;;8.93;52.74
47742;BME280;33504;52.066;6.096;2022-11-24T03:55:10;100338.22;;;8.42;53.67
47742;BME280;33504;52.066;6.096;2022-11-24T03:57:37;100329.68;;;8.74;52.99
47742;BME280;33504;52.066;6.096;2022-11-24T04:00:05;100334.63;;;8.43;53.65
47742;BME280;33504;52.066;6.096;2022-11-24T04:02:32;100339.38;;;8.74;53.04
47742;BME280;33504;52.066;6.096;2022-11-24T04:05:00;100341.88;;;8.48;54.44
47742;BME280;33504;52.066;6.096;2022-11-24T04:07:27;100345.03;;;8.68;53.08
47742;BME280;33504;52.066;6.096;2022-11-24T04:09:53;100352.60;;;8.58;53.29
47742;BME280;33504;52.066;6.096;2022-11-24T04:12:20;100355.56;;;8.59;53.17
47742;BME280;33504;52.066;6.096;2022-11-24T04:14:47;100358.23;;;8.60;53.15
47742;BME280;33504;52.066;6.096;2022-11-24T04:17:15;100357.76;;;8.40;53.76
47742;BME280;33504;52.066;6.096;2022-11-24T04:19:41;100360.41;;;8.62;53.24
47742;BME280;33504;52.066;6.096;2022-11-24T04:22:08;100361.82;;;8.59;53.38
47742;BME280;33504;52.066;6.096;2022-11-24T04:24:35;100364.48;;;8.43;53.77
47742;BME280;33504;52.066;6.096;2022-11-24T04:27:02;100360.61;;;8.85;53.44
47742;BME280;33504;52.066;6.096;2022-11-24T04:29:29;100366.10;;;8.56;53.30
47742;BME280;33504;52.066;6.096;2022-11-24T04:31:56;100370.12;;;8.40;53.20
47742;BME280;33504;52.066;6.096;2022-11-24T04:34:23;100376.73;;;8.97;52.59
47742;BME280;33504;52.066;6.096;2022-11-24T04:36:49;100376.31;;;8.91;52.76
47742;BME280;33504;52.066;6.096;2022-11-24T04:39:16;100381.22;;;8.69;52.54
47742;BME280;33504;52.066;6.096;2022-11-24T04:41:43;100382.61;;;9.18;52.28
47742;BME280;33504;52.066;6.096;2022-11-24T04:44:10;100383.81;;;9.07;52.39
47742;BME280;33504;52.066;6.096;2022-11-24T04:46:37;100391.98;;;9.30;52.03
47742;BME280;33504;52.066;6.096;2022-11-24T04:49:05;100388.18;;;9.12;52.28
47742;BME280;33504;52.066;6.096;2022-11-24T04:51:31;100390.99;;;9.19;52.18
47742;BME280;33504;52.066;6.096;2022-11-24T04:53:58;100390.83;;;9.03;52.32
47742;BME280;33504;52.066;6.096;2022-11-24T04:56:25;100390.64;;;8.95;52.10
47742;BME280;33504;52.066;6.096;2022-11-24T04:58:53;100396.15;;;9.20;51.66
47742;BME280;33504;52.066;6.096;2022-11-24T05:01:20;100397.08;;;9.26;52.10
47742;BME280;33504;52.066;6.096;2022-11-24T05:03:47;100404.37;;;8.79;52.34
47742;BME280;33504;52.066;6.096;2022-11-24T05:06:15;100401.19;;;8.75;52.61
47742;BME280;33504;52.066;6.096;2022-11-24T05:08:42;100403.33;;;8.78;52.37
47742;BME280;33504;52.066;6.096;2022-11-24T05:11:13;100403.02;;;9.39;51.84
47742;BME280;33504;52.066;6.096;2022-11-24T05:13:40;100401.58;;;9.21;52.00
47742;BME280;33504;52.066;6.096;2022-11-24T05:16:07;100407.46;;;9.16;51.62
47742;BME280;33504;52.066;6.096;2022-11-24T05:18:34;100410.44;;;9.06;51.50
47742;BME280;33504;52.066;6.096;2022-11-24T05:21:01;100412.40;;;9.28;51.49
47742;BME280;33504;52.066;6.096;2022-11-24T05:23:29;100413.24;;;9.23;51.58
47742;BME280;33504;52.066;6.096;2022-11-24T05:25:58;100422.46;;;9.47;51.24
47742;BME280;33504;52.066;6.096;2022-11-24T05:28:25;100427.58;;;9.18;51.72
47742;BME280;33504;52.066;6.096;2022-11-24T05:30:52;100431.67;;;9.61;51.17
47742;BME280;33504;52.066;6.096;2022-11-24T05:33:19;100434.43;;;9.69;50.88
47742;BME280;33504;52.066;6.096;2022-11-24T05:35:46;100437.80;;;9.59;51.62
47742;BME280;33504;52.066;6.096;2022-11-24T05:38:14;100441.21;;;9.40;51.40
47742;BME280;33504;52.066;6.096;2022-11-24T05:40:41;100441.62;;;9.34;51.48
47742;BME280;33504;52.066;6.096;2022-11-24T05:43:09;100446.52;;;9.07;51.54
47742;BME280;33504;52.066;6.096;2022-11-24T05:45:37;100446.70;;;9.28;51.78
47742;BME280;33504;52.066;6.096;2022-11-24T05:48:05;100450.04;;;9.61;51.12
47742;BME280;33504;52.066;6.096;2022-11-24T05:50:32;100453.88;;;9.80;50.77
47742;BME280;33504;52.066;6.096;2022-11-24T05:53:01;100458.71;;;9.76;50.86
47742;BME280;33504;52.066;6.096;2022-11-24T05:55:28;100461.57;;;9.81;50.18
47742;BME280;33504;52.066;6.096;2022-11-24T05:57:58;100466.93;;;9.76;50.17
47742;BME280;33504;52.066;6.096;2022-11-24T06:00:25;100470.72;;;9.93;50.48
47742;BME280;33504;52.066;6.096;2022-11-24T06:02:52;100475.32;;;9.52;50.52
47742;BME280;33504;52.066;6.096;2022-11-24T06:05:19;100482.42;;;9.63;50.54
47742;BME280;33504;52.066;6.096;2022-11-24T06:07:47;100487.12;;;9.60;50.57
47742;BME280;33504;52.066;6.096;2022-11-24T06:10:14;100496.66;;;9.74;50.36
47742;BME280;33504;52.066;6.096;2022-11-24T06:12:41;100493.31;;;9.63;50.53
47742;BME280;33504;52.066;6.096;2022-11-24T06:15:10;100498.08;;;9.68;50.39
47742;BME280;33504;52.066;6.096;2022-11-24T06:17:37;100505.26;;;9.69;50.48
47742;BME280;33504;52.066;6.096;2022-11-24T06:20:06;100514.07;;;9.76;50.23
47742;BME280;33504;52.066;6.096;2022-11-24T06:22:34;100514.99;;;9.40;50.49
47742;BME280;33504;52.066;6.096;2022-11-24T06:25:02;100521.69;;;9.39;50.43
47742;BME280;33504;52.066;6.096;2022-11-24T06:27:29;100525.68;;;9.32;50.88
47742;BME280;33504;52.066;6.096;2022-11-24T06:29:56;100529.86;;;9.23;51.12
47742;BME280;33504;52.066;6.096;2022-11-24T06:32:23;100536.21;;;9.06;51.28
47742;BME280;33504;52.066;6.096;2022-11-24T06:34:50;100538.21;;;9.29;50.99
47742;BME280;33504;52.066;6.096;2022-11-24T06:37:16;100542.92;;;8.93;51.55
47742;BME280;33504;52.066;6.096;2022-11-24T06:39:43;100552.56;;;9.47;51.13
47742;BME280;33504;52.066;6.096;2022-11-24T06:42:10;100558.71;;;8.89;52.07
47742;BME280;33504;52.066;6.096;2022-11-24T06:44:37;100561.97;;;9.20;51.73
47742;BME280;33504;52.066;6.096;2022-11-24T06:47:05;100569.55;;;8.64;51.94
47742;BME280;33504;52.066;6.096;2022-11-24T06:49:31;100578.51;;;9.23;51.46
47742;BME280;33504;52.066;6.096;2022-11-24T06:51:58;100589.34;;;9.77;51.01
47742;BME280;33504;52.066;6.096;2022-11-24T06:54:25;100592.42;;;9.51;50.91
47742;BME280;33504;52.066;6.096;2022-11-24T06:56:55;100595.28;;;9.33;51.45
47742;BME280;33504;52.066;6.096;2022-11-24T06:59:23;100598.44;;;9.22;51.89
47742;BME280;33504;52.066;6.096;2022-11-24T07:01:50;100607.29;;;9.64;51.26
47742;BME280;33504;52.066;6.096;2022-11-24T07:04:18;100611.53;;;9.74;51.40
47742;BME280;33504;52.066;6.096;2022-11-24T07:06:45;100618.65;;;8.73;53.13
47742;BME280;33504;52.066;6.096;2022-11-24T07:09:13;100621.21;;;9.66;52.09
47742;BME280;33504;52.066;6.096;2022-11-24T07:11:40;100629.95;;;9.44;52.15
47742;BME280;33504;52.066;6.096;2022-11-24T07:14:08;100630.71;;;9.26;52.93
47742;BME280;33504;52.066;6.096;2022-11-24T07:16:35;100640.27;;;9.38;52.84
47742;BME280;33504;52.066;6.096;2022-11-24T07:19:02;100644.95;;;9.53;52.58
47742;BME280;33504;52.066;6.096;2022-11-24T07:21:29;100646.42;;;9.46;52.74
47742;BME280;33504;52.066;6.096;2022-11-24T07:23:56;100649.74;;;9.69;52.46
47742;BME280;33504;52.066;6.096;2022-11-24T07:26:24;100652.92;;;9.59;52.71
47742;BME280;33504;52.066;6.096;2022-11-24T07:28:52;100657.33;;;9.74;52.40
47742;BME280;33504;52.066;6.096;2022-11-24T07:31:20;100662.62;;;9.38;52.63
47742;BME280;33504;52.066;6.096;2022-11-24T07:33:48;100665.42;;;9.83;52.25
47742;BME280;33504;52.066;6.096;2022-11-24T07:36:16;100668.81;;;9.88;52.27
47742;BME280;33504;52.066;6.096;2022-11-24T07:38:43;100672.64;;;9.86;51.89
47742;BME280;33504;52.066;6.096;2022-11-24T07:41:12;100679.99;;;10.31;51.87
47742;BME280;33504;52.066;6.096;2022-11-24T07:43:40;100682.83;;;9.54;52.28
47742;BME280;33504;52.066;6.096;2022-11-24T07:46:10;100683.84;;;9.69;52.12
47742;BME280;33504;52.066;6.096;2022-11-24T07:48:38;100687.47;;;9.70;52.16
47742;BME280;33504;52.066;6.096;2022-11-24T07:51:05;100691.50;;;9.87;52.34
47742;BME280;33504;52.066;6.096;2022-11-24T07:53:33;100698.52;;;9.73;52.49
47742;BME280;33504;52.066;6.096;2022-11-24T07:56:02;100700.83;;;9.89;52.20
47742;BME280;33504;52.066;6.096;2022-11-24T07:58:34;100702.57;;;9.72;52.17
47742;BME280;33504;52.066;6.096;2022-11-24T08:01:08;100704.76;;;10.15;52.30
47742;BME280;33504;52.066;6.096;2022-11-24T08:03:35;100710.44;;;9.79;52.04
47742;BME280;33504;52.066;6.096;2022-11-24T08:06:02;100712.50;;;10.04;52.00
47742;BME280;33504;52.066;6.096;2022-11-24T08:08:30;100713.76;;;10.09;51.95
47742;BME280;33504;52.066;6.096;2022-11-24T08:10:57;100719.10;;;9.67;52.26
47742;BME280;33504;52.066;6.096;2022-11-24T08:13:24;100719.26;;;9.25;52.90
47742;BME280;33504;52.066;6.096;2022-11-24T08:15:52;100718.87;;;9.52;52.43
47742;BME280;33504;52.066;6.096;2022-11-24T08:18:19;100722.12;;;9.56;52.53
47742;BME280;33504;52.066;6.096;2022-11-24T08:20:46;100729.11;;;9.73;52.73
47742;BME280;33504;52.066;6.096;2022-11-24T08:23:13;100735.75;;;9.82;52.22
47742;BME280;33504;52.066;6.096;2022-11-24T08:25:41;100737.99;;;9.72;52.32
47742;BME280;33504;52.066;6.096;2022-11-24T08:28:08;100736.94;;;9.75;52.13
47742;BME280;33504;52.066;6.096;2022-11-24T08:30:35;100740.05;;;9.30;53.26
47742;BME280;33504;52.066;6.096;2022-11-24T08:33:02;100738.52;;;9.60;52.56
47742;BME280;33504;52.066;6.096;2022-11-24T08:35:29;100745.90;;;9.59;52.44
47742;BME280;33504;52.066;6.096;2022-11-24T08:37:57;100752.67;;;9.78;52.36
47742;BME280;33504;52.066;6.096;2022-11-24T08:40:24;100749.95;;;9.96;52.04
47742;BME280;33504;52.066;6.096;2022-11-24T08:42:56;100757.99;;;9.86;52.14
47742;BME280;33504;52.066;6.096;2022-11-24T08:45:23;100758.47;;;10.18;51.80
47742;BME280;33504;52.066;6.096;2022-11-24T08:47:51;100763.99;;;10.17;51.91
47742;BME280;33504;52.066;6.096;2022-11-24T08:50:18;100763.37;;;9.89;51.91
47742;BME280;33504;52.066;6.096;2022-11-24T08:52:45;100763.52;;;10.01;51.96
47742;BME280;33504;52.066;6.096;2022-11-24T08:55:12;100766.90;;;10.15;51.73
47742;BME280;33504;52.066;6.096;2022-11-24T08:57:39;100768.37;;;10.25;51.75
47742;BME280;33504;52.066;6.096;2022-11-24T09:00:07;100770.15;;;10.25;51.77
47742;BME280;33504;52.066;6.096;2022-11-24T09:02:35;100769.83;;;10.23;51.94
47742;BME280;33504;52.066;6.096;2022-11-24T09:05:02;100772.92;;;10.19;51.94
47742;BME280;33504;52.066;6.096;2022-11-24T09:07:28;100780.59;;;10.33;51.74
47742;BME280;33504;52.066;6.096;2022-11-24T09:09:56;100782.29;;;10.36;52.15
47742;BME280;33504;52.066;6.096;2022-11-24T09:12:23;100779.22;;;10.58;51.55
47742;BME280;33504;52.066;6.096;2022-11-24T09:14:50;100787.45;;;10.92;51.12
47742;BME280;33504;52.066;6.096;2022-11-24T09:17:17;100788.14;;;10.87;50.59
47742;BME280;33504;52.066;6.096;2022-11-24T09:19:45;100797.26;;;10.91;50.76
47742;BME280;33504;52.066;6.096;2022-11-24T09:22:12;100807.68;;;10.59;50.83
47742;BME280;33504;52.066;6.096;2022-11-24T09:24:39;100811.61;;;10.66;51.19
47742;BME280;33504;52.066;6.096;2022-11-24T09:27:06;100808.36;;;10.57;51.42
47742;BME280;33504;52.066;6.096;2022-11-24T09:29:33;100812.38;;;10.95;50.96
47742;BME280;33504;52.066;6.096;2022-11-24T09:32:00;100818.11;;;10.61;51.14
47742;BME280;33504;52.066;6.096;2022-11-24T09:34:26;100819.30;;;10.91;51.10
47742;BME280;33504;52.066;6.096;2022-11-24T09:36:53;100822.01;;;10.67;50.62
47742;BME280;33504;52.066;6.096;2022-11-24T09:39:20;100827.19;;;10.98;50.87
47742;BME280;33504;52.066;6.096;2022-11-24T09:42:01;100829.20;;;10.44;51.09
47742;BME280;33504;52.066;6.096;2022-11-24T09:44:45;100840.84;;;11.22;50.58
47742;BME280;33504;52.066;6.096;2022-11-24T09:47:22;100842.39;;;10.86;50.55
47742;BME280;33504;52.066;6.096;2022-11-24T09:49:58;100850.91;;;11.26;50.33
47742;BME280;33504;52.066;6.096;2022-11-24T09:52:37;100856.23;;;11.06;50.19
47742;BME280;33504;52.066;6.096;2022-11-24T09:55:15;100856.64;;;10.77;50.52
47742;BME280;33504;52.066;6.096;2022-11-24T09:57:47;100863.06;;;10.88;50.42
47742;BME280;33504;52.066;6.096;2022-11-24T10:00:19;100875.46;;;10.62;50.58
47742;BME280;33504;52.066;6.096;2022-11-24T10:02:47;100865.83;;;11.26;50.27
47742;BME280;33504;52.066;6.096;2022-11-24T10:05:14;100866.41;;;12.07;48.23
47742;BME280;33504;52.066;6.096;2022-11-24T10:07:46;100867.10;;;12.91;47.59
47742;BME280;33504;52.066;6.096;2022-11-24T10:10:24;100868.12;;;12.64;46.07
47742;BME280;33504;52.066;6.096;2022-11-24T10:12:59;100868.74;;;13.02;45.59
47742;BME280;33504;52.066;6.096;2022-11-24T10:15:40;100868.93;;;12.97;46.32
47742;BME280;33504;52.066;6.096;2022-11-24T10:18:29;100874.38;;;12.76;46.55
47742;BME280;33504;52.066;6.096;2022-11-24T10:21:08;100881.35;;;12.72;46.48
47742;BME280;33504;52.066;6.096;2022-11-24T10:23:51;100888.88;;;12.41;46.88
47742;BME280;33504;52.066;6.096;2022-11-24T10:26:30;100890.39;;;13.44;46.13
47742;BME280;33504;52.066;6.096;2022-11-24T10:29:01;100888.50;;;13.97;44.24
47742;BME280;33504;52.066;6.096;2022-11-24T10:31:37;100889.00;;;15.11;42.53
47742;BME280;33504;52.066;6.096;2022-11-24T10:34:12;100891.16;;;16.14;40.65
47742;BME280;33504;52.066;6.096;2022-11-24T10:36:45;100895.37;;;15.97;39.70
47742;BME280;33504;52.066;6.096;2022-11-24T10:39:18;100904.47;;;15.94;39.21
47742;BME280;33504;52.066;6.096;2022-11-24T10:41:51;100900.64;;;15.18;40.77
47742;BME280;33504;52.066;6.096;2022-11-24T10:44:22;100907.25;;;15.88;39.58
47742;BME280;33504;52.066;6.096;2022-11-24T10:46:49;100909.66;;;15.99;38.86
47742;BME280;33504;52.066;6.096;2022-11-24T10:49:20;100914.85;;;16.54;38.67
47742;BME280;33504;52.066;6.096;2022-11-24T10:51:58;100910.44;;;16.94;37.92
47742;BME280;33504;52.066;6.096;2022-11-24T10:54:27;100908.03;;;17.04;36.91
47742;BME280;33504;52.066;6.096;2022-11-24T10:56:54;100909.19;;;17.74;36.81
47742;BME280;33504;52.066;6.096;2022-11-24T10:59:32;100914.00;;;17.61;35.83
47742;BME280;33504;52.066;6.096;2022-11-24T11:02:00;100921.32;;;18.16;35.42
47742;BME280;33504;52.066;6.096;2022-11-24T11:04:30;100923.24;;;17.56;35.53
47742;BME280;33504;52.066;6.096;2022-11-24T11:07:17;100923.89;;;18.47;34.83
47742;BME280;33504;52.066;6.096;2022-11-24T11:09:45;100924.51;;;17.97;35.22
47742;BME280;33504;52.066;6.096;2022-11-24T11:12:20;100925.49;;;18.24;34.66
47742;BME280;33504;52.066;6.096;2022-11-24T11:14:47;100929.25;;;19.02;33.99
47742;BME280;33504;52.066;6.096;2022-11-24T11:17:33;100928.39;;;19.08;33.44
47742;BME280;33504;52.066;6.096;2022-11-24T11:20:04;100931.59;;;18.21;33.99
47742;BME280;33504;52.066;6.096;2022-11-24T11:22:35;100933.32;;;18.35;34.12
47742;BME280;33504;52.066;6.096;2022-11-24T11:25:16;100929.20;;;18.59;34.02
47742;BME280;33504;52.066;6.096;2022-11-24T11:27:44;100933.88;;;19.33;33.22
47742;BME280;33504;52.066;6.096;2022-11-24T11:30:20;100935.07;;;19.74;31.97
47742;BME280;33504;52.066;6.096;2022-11-24T11:32:53;100949.29;;;19.04;33.25
47742;BME280;33504;52.066;6.096;2022-11-24T11:35:21;100945.57;;;18.18;33.89
47742;BME280;33504;52.066;6.096;2022-11-24T11:37:50;100946.81;;;18.38;33.74
47742;BME280;33504;52.066;6.096;2022-11-24T11:40:23;100950.26;;;19.06;33.39
47742;BME280;33504;52.066;6.096;2022-11-24T11:42:55;100947.58;;;19.02;32.54
47742;BME280;33504;52.066;6.096;2022-11-24T11:45:27;100952.82;;;18.66;33.09
47742;BME280;33504;52.066;6.096;2022-11-24T11:48:04;100956.54;;;18.16;33.97
47742;BME280;33504;52.066;6.096;2022-11-24T11:50:40;100963.32;;;17.82;35.02
47742;BME280;33504;52.066;6.096;2022-11-24T11:53:15;100958.18;;;17.30;35.61
47742;BME280;33504;52.066;6.096;2022-11-24T11:55:52;100952.27;;;16.75;36.04
47742;BME280;33504;52.066;6.096;2022-11-24T11:59:04;100956.65;;;16.50;36.94
47742;BME280;33504;52.066;6.096;2022-11-24T12:01:48;100948.59;;;15.59;38.23
47742;BME280;33504;52.066;6.096;2022-11-24T12:04:32;100949.43;;;15.15;38.72
47742;BME280;33504;52.066;6.096;2022-11-24T12:07:19;100952.58;;;15.38;39.03
47742;BME280;33504;52.066;6.096;2022-11-24T12:09:57;100956.14;;;15.16;39.37
47742;BME280;33504;52.066;6.096;2022-11-24T12:12:42;100954.04;;;15.30;39.75
47742;BME280;33504;52.066;6.096;2022-11-24T12:15:20;100948.79;;;15.20;39.59
47742;BME280;33504;52.066;6.096;2022-11-24T12:17:53;100949.79;;;14.85;39.77
47742;BME280;33504;52.066;6.096;2022-11-24T12:20:35;100946.60;;;14.63;40.27
47742;BME280;33504;52.066;6.096;2022-11-24T12:23:15;100946.83;;;14.58;40.48
47742;BME280;33504;52.066;6.096;2022-11-24T12:25:47;100945.73;;;14.65;40.49
47742;BME280;33504;52.066;6.096;2022-11-24T12:28:26;100941.87;;;14.80;40.47
47742;BME280;33504;52.066;6.096;2022-11-24T12:31:03;100941.36;;;14.66;40.73
47742;BME280;33504;52.066;6.096;2022-11-24T12:33:46;100947.66;;;14.64;40.23
47742;BME280;33504;52.066;6.096;2022-11-24T12:36:31;100949.98;;;15.05;39.71
47742;BME280;33504;52.066;6.096;2022-11-24T12:39:05;100952.11;;;15.20;39.88
47742;BME280;33504;52.066;6.096;2022-11-24T12:41:46;100953.32;;;15.29;39.63
47742;BME280;33504;52.066;6.096;2022-11-24T12:44:33;100955.96;;;15.68;39.06
47742;BME280;33504;52.066;6.096;2022-11-24T12:47:09;100957.97;;;15.47;38.76
47742;BME280;33504;52.066;6.096;2022-11-24T12:49:46;100960.75;;;15.32;38.90
47742;BME280;33504;52.066;6.096;2022-11-24T12:52:22;100962.11;;;14.73;39.05
47742;BME280;33504;52.066;6.096;2022-11-24T12:54:52;100962.43;;;15.52;39.47
47742;BME280;33504;52.066;6.096;2022-11-24T12:57:24;100963.25;;;15.70;38.98
47742;BME280;33504;52.066;6.096;2022-11-24T12:59:58;100961.41;;;15.85;38.93
47742;BME280;33504;52.066;6.096;2022-11-24T13:02:37;100963.23;;;16.34;37.93
47742;BME280;33504;52.066;6.096;2022-11-24T13:05:17;100959.35;;;16.53;37.76
47742;BME280;33504;52.066;6.096;2022-11-24T13:07:54;100958.77;;;16.41;37.35
47742;BME280;33504;52.066;6.096;2022-11-24T13:10:28;100959.99;;;16.78;37.28